Hauptseite
METAR-TAF:

METAR-TAF

Flughäfen :

Flughafen Dundee

Dundee, Schottland

Breite: 56-27N, Länge: 003-01W, Höhe: 4 m

Beobachtung

Neuester Wetterbericht von vor 11 Stunden und 17 Minuten, um 14:50 UTC
Wind 23 kt aus West/Südwest
Temperatur 18°C
Luftfeuchtigkeit 77%
Luftdruck 1011 hPa
Sichtweite 10 km oder mehr
Aufgelockert bewölkt in der Höhe von 3000 ft

METAR: EGPN 181450Z 25023KT 9999 SCT030 18/14 Q1011

Zeit: 03:07 (02:07 UTC)

Prognose

Neuester Wetterbericht von vor 15 Stunden und 4 Minuten, um 11:03 UTC
Gültige Prognose vom 18 um 12 UTC bis 18 um 16 UTC
Wind 13 kt aus West/Südwest
Sichtweite 10 km oder mehr
Durchbrochene Bewölkung in der Höhe von 3500 ft
Wahrscheinlichkeit 30% :
Zeitweise
vom 18 um 12 UTC bis 18 um 16 UTC
Wind 16 kt aus West/Südwest, Böen bis zu 26 kt

TAF: EGPN 181103Z 1812/1816 24013KT 9999 BKN035 PROB30 TEMPO 1812/1816 25016G26KT

Wetterbeobachtungen und Prognosen von mehr als 4000 Flughäfen (METAR und TAF Bericht).

Die verfügbaren Stationen werden durch gelbe und rote Markierungen auf der Karte dargestellt.

Führen Sie die Maus auf sie, um den Namen der Station zu sehen.

Darauf klicken, um die Beobachtung von Wetterbeobachtungen und Prognosen zu sehen.

Um die Karte zu ändern : klicken Sie auf den grünen Tasten mit einem schwarzen Kreuz Zum Vergrößern, auf den grünen Button mit einem Gedankenstrich zu verkleinern, oder auf die grünen Pfeile für benachbarte Karten.


METAR-TAF: